sensor_id;sensor_type;location;lat;lon;timestamp;P1;durP1;ratioP1;P2;durP2;ratioP2
11522;SDS011;40093;43.224;27.910;2022-11-20T00:01:56;17.23;;;5.40;;
11522;SDS011;40093;43.224;27.910;2022-11-20T00:04:23;14.13;;;5.20;;
11522;SDS011;40093;43.224;27.910;2022-11-20T00:06:52;13.90;;;5.03;;
11522;SDS011;40093;43.224;27.910;2022-11-20T00:09:19;14.00;;;5.47;;
11522;SDS011;40093;43.224;27.910;2022-11-20T00:11:46;14.13;;;5.50;;
11522;SDS011;40093;43.224;27.910;2022-11-20T00:14:13;10.53;;;4.77;;
11522;SDS011;40093;43.224;27.910;2022-11-20T00:16:40;14.87;;;5.47;;
11522;SDS011;40093;43.224;27.910;2022-11-20T00:19:09;10.60;;;4.90;;
11522;SDS011;40093;43.224;27.910;2022-11-20T00:21:36;12.27;;;5.23;;
11522;SDS011;40093;43.224;27.910;2022-11-20T00:24:07;14.43;;;5.20;;
11522;SDS011;40093;43.224;27.910;2022-11-20T00:26:36;12.87;;;4.93;;
11522;SDS011;40093;43.224;27.910;2022-11-20T00:29:03;12.53;;;5.03;;
11522;SDS011;40093;43.224;27.910;2022-11-20T00:31:30;14.67;;;5.67;;
11522;SDS011;40093;43.224;27.910;2022-11-20T00:33:58;13.43;;;6.93;;
11522;SDS011;40093;43.224;27.910;2022-11-20T00:36:26;10.90;;;6.53;;
11522;SDS011;40093;43.224;27.910;2022-11-20T00:38:55;15.70;;;6.00;;
11522;SDS011;40093;43.224;27.910;2022-11-20T00:41:26;11.23;;;5.57;;
11522;SDS011;40093;43.224;27.910;2022-11-20T00:43:55;14.07;;;6.13;;
11522;SDS011;40093;43.224;27.910;2022-11-20T00:46:24;14.90;;;6.10;;
11522;SDS011;40093;43.224;27.910;2022-11-20T00:48:52;11.67;;;5.33;;
11522;SDS011;40093;43.224;27.910;2022-11-20T00:51:20;16.40;;;5.60;;
11522;SDS011;40093;43.224;27.910;2022-11-20T00:53:49;14.47;;;5.70;;
11522;SDS011;40093;43.224;27.910;2022-11-20T00:56:16;12.30;;;5.03;;
11522;SDS011;40093;43.224;27.910;2022-11-20T00:58:46;13.63;;;5.67;;
11522;SDS011;40093;43.224;27.910;2022-11-20T01:01:15;14.63;;;5.63;;
11522;SDS011;40093;43.224;27.910;2022-11-20T01:03:44;11.20;;;5.03;;
11522;SDS011;40093;43.224;27.910;2022-11-20T01:06:12;11.90;;;5.00;;
11522;SDS011;40093;43.224;27.910;2022-11-20T01:08:42;9.30;;;5.27;;
11522;SDS011;40093;43.224;27.910;2022-11-20T01:11:11;10.37;;;5.20;;
11522;SDS011;40093;43.224;27.910;2022-11-20T01:13:40;12.23;;;5.03;;
11522;SDS011;40093;43.224;27.910;2022-11-20T01:16:17;12.10;;;4.90;;
11522;SDS011;40093;43.224;27.910;2022-11-20T01:19:00;14.03;;;5.03;;
11522;SDS011;40093;43.224;27.910;2022-11-20T01:21:32;13.20;;;5.43;;
11522;SDS011;40093;43.224;27.910;2022-11-20T01:24:00;14.53;;;5.13;;
11522;SDS011;40093;43.224;27.910;2022-11-20T01:26:28;12.67;;;5.20;;
11522;SDS011;40093;43.224;27.910;2022-11-20T01:28:58;11.37;;;5.27;;
11522;SDS011;40093;43.224;27.910;2022-11-20T01:31:27;10.90;;;5.10;;
11522;SDS011;40093;43.224;27.910;2022-11-20T01:33:56;11.33;;;5.17;;
11522;SDS011;40093;43.224;27.910;2022-11-20T01:36:34;11.47;;;4.77;;
11522;SDS011;40093;43.224;27.910;2022-11-20T01:39:04;15.70;;;5.33;;
11522;SDS011;40093;43.224;27.910;2022-11-20T01:41:36;8.67;;;4.80;;
11522;SDS011;40093;43.224;27.910;2022-11-20T01:47:19;13.20;;;5.53;;
11522;SDS011;40093;43.224;27.910;2022-11-20T01:49:50;14.83;;;5.13;;
11522;SDS011;40093;43.224;27.910;2022-11-20T01:52:23;12.73;;;5.17;;
11522;SDS011;40093;43.224;27.910;2022-11-20T01:54:58;12.03;;;5.07;;
11522;SDS011;40093;43.224;27.910;2022-11-20T01:57:29;14.60;;;5.60;;
11522;SDS011;40093;43.224;27.910;2022-11-20T02:00:02;11.33;;;4.90;;
11522;SDS011;40093;43.224;27.910;2022-11-20T02:06:09;10.03;;;5.90;;
11522;SDS011;40093;43.224;27.910;2022-11-20T02:08:40;11.37;;;5.50;;
11522;SDS011;40093;43.224;27.910;2022-11-20T02:11:07;13.33;;;5.40;;
11522;SDS011;40093;43.224;27.910;2022-11-20T02:13:35;13.13;;;5.30;;
11522;SDS011;40093;43.224;27.910;2022-11-20T02:16:11;11.33;;;5.70;;
11522;SDS011;40093;43.224;27.910;2022-11-20T02:18:41;12.53;;;5.23;;
11522;SDS011;40093;43.224;27.910;2022-11-20T02:21:14;14.40;;;5.57;;
11522;SDS011;40093;43.224;27.910;2022-11-20T02:24:09;16.97;;;7.40;;
11522;SDS011;40093;43.224;27.910;2022-11-20T02:26:40;15.90;;;7.73;;
11522;SDS011;40093;43.224;27.910;2022-11-20T02:29:12;16.37;;;9.43;;
11522;SDS011;40093;43.224;27.910;2022-11-20T02:31:41;16.57;;;9.23;;
11522;SDS011;40093;43.224;27.910;2022-11-20T02:34:09;15.67;;;5.47;;
11522;SDS011;40093;43.224;27.910;2022-11-20T02:36:36;15.50;;;6.77;;
11522;SDS011;40093;43.224;27.910;2022-11-20T02:39:10;14.13;;;6.90;;
11522;SDS011;40093;43.224;27.910;2022-11-20T02:41:42;18.00;;;6.40;;
11522;SDS011;40093;43.224;27.910;2022-11-20T02:44:09;13.33;;;5.87;;
11522;SDS011;40093;43.224;27.910;2022-11-20T02:46:36;12.20;;;5.80;;
11522;SDS011;40093;43.224;27.910;2022-11-20T02:49:05;16.20;;;6.00;;
11522;SDS011;40093;43.224;27.910;2022-11-20T02:51:32;10.93;;;5.63;;
11522;SDS011;40093;43.224;27.910;2022-11-20T02:53:59;11.83;;;5.33;;
11522;SDS011;40093;43.224;27.910;2022-11-20T02:56:28;12.90;;;5.70;;
11522;SDS011;40093;43.224;27.910;2022-11-20T02:58:55;12.70;;;6.30;;
11522;SDS011;40093;43.224;27.910;2022-11-20T03:01:22;12.17;;;5.27;;
11522;SDS011;40093;43.224;27.910;2022-11-20T03:03:49;14.90;;;5.80;;
11522;SDS011;40093;43.224;27.910;2022-11-20T03:06:19;12.73;;;5.60;;
11522;SDS011;40093;43.224;27.910;2022-11-20T03:08:47;11.43;;;5.33;;
11522;SDS011;40093;43.224;27.910;2022-11-20T03:11:14;12.73;;;5.50;;
11522;SDS011;40093;43.224;27.910;2022-11-20T03:13:43;12.33;;;5.00;;
11522;SDS011;40093;43.224;27.910;2022-11-20T03:16:11;11.60;;;5.50;;
11522;SDS011;40093;43.224;27.910;2022-11-20T03:18:40;12.13;;;5.93;;
11522;SDS011;40093;43.224;27.910;2022-11-20T03:21:08;12.40;;;5.93;;
11522;SDS011;40093;43.224;27.910;2022-11-20T03:23:36;12.37;;;5.47;;
11522;SDS011;40093;43.224;27.910;2022-11-20T03:26:08;15.77;;;6.03;;
11522;SDS011;40093;43.224;27.910;2022-11-20T03:28:37;13.40;;;5.63;;
11522;SDS011;40093;43.224;27.910;2022-11-20T03:31:07;15.20;;;6.27;;
11522;SDS011;40093;43.224;27.910;2022-11-20T03:33:37;15.97;;;5.90;;
11522;SDS011;40093;43.224;27.910;2022-11-20T03:36:06;14.63;;;5.90;;
11522;SDS011;40093;43.224;27.910;2022-11-20T03:38:34;17.13;;;6.53;;
11522;SDS011;40093;43.224;27.910;2022-11-20T03:41:02;10.83;;;5.63;;
11522;SDS011;40093;43.224;27.910;2022-11-20T03:43:31;12.97;;;6.57;;
11522;SDS011;40093;43.224;27.910;2022-11-20T03:45:59;16.53;;;5.97;;
11522;SDS011;40093;43.224;27.910;2022-11-20T03:48:28;12.43;;;5.63;;
11522;SDS011;40093;43.224;27.910;2022-11-20T03:51:06;13.40;;;5.57;;
11522;SDS011;40093;43.224;27.910;2022-11-20T03:53:34;11.57;;;5.47;;
11522;SDS011;40093;43.224;27.910;2022-11-20T03:56:01;12.20;;;5.53;;
11522;SDS011;40093;43.224;27.910;2022-11-20T03:58:28;9.97;;;5.03;;
11522;SDS011;40093;43.224;27.910;2022-11-20T04:00:55;11.43;;;5.17;;
11522;SDS011;40093;43.224;27.910;2022-11-20T04:03:23;16.00;;;5.53;;
11522;SDS011;40093;43.224;27.910;2022-11-20T04:05:51;15.13;;;5.43;;
11522;SDS011;40093;43.224;27.910;2022-11-20T04:08:19;14.40;;;5.47;;
11522;SDS011;40093;43.224;27.910;2022-11-20T04:10:47;16.43;;;8.20;;
11522;SDS011;40093;43.224;27.910;2022-11-20T04:13:14;15.00;;;6.43;;
11522;SDS011;40093;43.224;27.910;2022-11-20T04:15:41;12.47;;;5.80;;
11522;SDS011;40093;43.224;27.910;2022-11-20T04:18:08;14.80;;;5.40;;
11522;SDS011;40093;43.224;27.910;2022-11-20T04:20:35;10.87;;;4.63;;
11522;SDS011;40093;43.224;27.910;2022-11-20T04:23:04;12.77;;;4.97;;
11522;SDS011;40093;43.224;27.910;2022-11-20T04:25:32;17.10;;;5.13;;
11522;SDS011;40093;43.224;27.910;2022-11-20T04:27:59;11.93;;;4.80;;
11522;SDS011;40093;43.224;27.910;2022-11-20T04:37:31;11.43;;;4.67;;
11522;SDS011;40093;43.224;27.910;2022-11-20T04:40:00;13.07;;;4.83;;
11522;SDS011;40093;43.224;27.910;2022-11-20T04:42:27;11.90;;;4.93;;
11522;SDS011;40093;43.224;27.910;2022-11-20T04:44:54;11.47;;;4.90;;
11522;SDS011;40093;43.224;27.910;2022-11-20T04:47:22;13.23;;;4.40;;
11522;SDS011;40093;43.224;27.910;2022-11-20T04:49:50;13.63;;;4.57;;
11522;SDS011;40093;43.224;27.910;2022-11-20T04:52:17;9.97;;;4.20;;
11522;SDS011;40093;43.224;27.910;2022-11-20T04:54:46;11.33;;;4.40;;
11522;SDS011;40093;43.224;27.910;2022-11-20T04:57:15;13.27;;;4.73;;
11522;SDS011;40093;43.224;27.910;2022-11-20T04:59:42;12.10;;;4.37;;
11522;SDS011;40093;43.224;27.910;2022-11-20T05:02:10;15.17;;;4.60;;
11522;SDS011;40093;43.224;27.910;2022-11-20T05:04:37;9.17;;;3.93;;
11522;SDS011;40093;43.224;27.910;2022-11-20T05:07:04;11.47;;;4.00;;
11522;SDS011;40093;43.224;27.910;2022-11-20T05:09:31;11.53;;;4.37;;
11522;SDS011;40093;43.224;27.910;2022-11-20T05:11:58;11.83;;;4.30;;
11522;SDS011;40093;43.224;27.910;2022-11-20T05:14:28;14.80;;;4.27;;
11522;SDS011;40093;43.224;27.910;2022-11-20T05:16:56;10.43;;;4.07;;
11522;SDS011;40093;43.224;27.910;2022-11-20T05:19:24;14.47;;;4.17;;
11522;SDS011;40093;43.224;27.910;2022-11-20T05:21:50;13.20;;;4.67;;
11522;SDS011;40093;43.224;27.910;2022-11-20T05:24:18;13.07;;;4.80;;
11522;SDS011;40093;43.224;27.910;2022-11-20T05:26:45;9.60;;;4.40;;
11522;SDS011;40093;43.224;27.910;2022-11-20T05:29:12;13.47;;;4.43;;
11522;SDS011;40093;43.224;27.910;2022-11-20T05:31:41;14.40;;;5.37;;
11522;SDS011;40093;43.224;27.910;2022-11-20T05:34:08;14.23;;;4.43;;
11522;SDS011;40093;43.224;27.910;2022-11-20T05:36:35;18.97;;;5.63;;
11522;SDS011;40093;43.224;27.910;2022-11-20T05:39:03;11.90;;;4.33;;
11522;SDS011;40093;43.224;27.910;2022-11-20T05:41:30;9.03;;;3.97;;
11522;SDS011;40093;43.224;27.910;2022-11-20T05:43:57;12.67;;;4.47;;
11522;SDS011;40093;43.224;27.910;2022-11-20T05:46:24;12.33;;;4.60;;
11522;SDS011;40093;43.224;27.910;2022-11-20T05:48:52;14.70;;;5.60;;
11522;SDS011;40093;43.224;27.910;2022-11-20T05:51:20;14.00;;;4.37;;
11522;SDS011;40093;43.224;27.910;2022-11-20T05:53:47;17.53;;;5.27;;
11522;SDS011;40093;43.224;27.910;2022-11-20T05:56:15;15.97;;;4.90;;
11522;SDS011;40093;43.224;27.910;2022-11-20T05:58:43;10.97;;;4.23;;
11522;SDS011;40093;43.224;27.910;2022-11-20T06:01:12;10.97;;;4.37;;
11522;SDS011;40093;43.224;27.910;2022-11-20T06:03:42;14.00;;;4.47;;
11522;SDS011;40093;43.224;27.910;2022-11-20T06:06:14;14.00;;;4.60;;
11522;SDS011;40093;43.224;27.910;2022-11-20T06:08:41;12.07;;;5.07;;
11522;SDS011;40093;43.224;27.910;2022-11-20T06:11:10;13.17;;;4.20;;
11522;SDS011;40093;43.224;27.910;2022-11-20T06:13:39;15.27;;;4.60;;
11522;SDS011;40093;43.224;27.910;2022-11-20T06:19:33;14.07;;;4.50;;
11522;SDS011;40093;43.224;27.910;2022-11-20T06:22:01;12.97;;;4.27;;
11522;SDS011;40093;43.224;27.910;2022-11-20T06:24:28;12.20;;;4.40;;
11522;SDS011;40093;43.224;27.910;2022-11-20T06:26:54;14.50;;;4.70;;
11522;SDS011;40093;43.224;27.910;2022-11-20T06:29:21;11.93;;;4.50;;
11522;SDS011;40093;43.224;27.910;2022-11-20T06:31:48;12.13;;;4.40;;
11522;SDS011;40093;43.224;27.910;2022-11-20T06:34:15;13.67;;;5.10;;
11522;SDS011;40093;43.224;27.910;2022-11-20T06:36:43;11.30;;;4.37;;
11522;SDS011;40093;43.224;27.910;2022-11-20T06:39:11;14.47;;;4.60;;
11522;SDS011;40093;43.224;27.910;2022-11-20T06:41:38;11.80;;;4.33;;
11522;SDS011;40093;43.224;27.910;2022-11-20T06:44:05;12.47;;;4.37;;
11522;SDS011;40093;43.224;27.910;2022-11-20T06:46:33;11.90;;;4.37;;
11522;SDS011;40093;43.224;27.910;2022-11-20T06:49:00;15.87;;;4.60;;
11522;SDS011;40093;43.224;27.910;2022-11-20T06:51:27;15.90;;;6.47;;
11522;SDS011;40093;43.224;27.910;2022-11-20T06:53:54;9.63;;;3.90;;
11522;SDS011;40093;43.224;27.910;2022-11-20T06:56:22;18.10;;;4.70;;
11522;SDS011;40093;43.224;27.910;2022-11-20T06:58:49;16.30;;;4.17;;
11522;SDS011;40093;43.224;27.910;2022-11-20T07:01:16;16.47;;;4.10;;
11522;SDS011;40093;43.224;27.910;2022-11-20T07:03:43;14.43;;;4.67;;
11522;SDS011;40093;43.224;27.910;2022-11-20T07:06:10;14.27;;;4.33;;
11522;SDS011;40093;43.224;27.910;2022-11-20T07:08:38;17.43;;;4.30;;
11522;SDS011;40093;43.224;27.910;2022-11-20T07:11:06;13.97;;;4.40;;
11522;SDS011;40093;43.224;27.910;2022-11-20T07:13:35;14.80;;;4.73;;
11522;SDS011;40093;43.224;27.910;2022-11-20T07:16:03;14.93;;;4.33;;
11522;SDS011;40093;43.224;27.910;2022-11-20T07:18:33;18.80;;;4.70;;
11522;SDS011;40093;43.224;27.910;2022-11-20T07:21:00;14.10;;;4.60;;
11522;SDS011;40093;43.224;27.910;2022-11-20T07:23:27;15.17;;;4.00;;
11522;SDS011;40093;43.224;27.910;2022-11-20T07:25:54;12.90;;;4.50;;
11522;SDS011;40093;43.224;27.910;2022-11-20T07:28:21;16.07;;;5.43;;
11522;SDS011;40093;43.224;27.910;2022-11-20T07:30:51;19.00;;;5.17;;
11522;SDS011;40093;43.224;27.910;2022-11-20T07:33:20;15.47;;;5.40;;
11522;SDS011;40093;43.224;27.910;2022-11-20T07:35:47;14.80;;;4.80;;
11522;SDS011;40093;43.224;27.910;2022-11-20T07:38:14;17.80;;;5.37;;
11522;SDS011;40093;43.224;27.910;2022-11-20T07:40:41;12.13;;;4.80;;
11522;SDS011;40093;43.224;27.910;2022-11-20T07:43:08;12.93;;;5.20;;
11522;SDS011;40093;43.224;27.910;2022-11-20T07:45:35;17.17;;;5.60;;
11522;SDS011;40093;43.224;27.910;2022-11-20T07:48:03;17.37;;;5.30;;
11522;SDS011;40093;43.224;27.910;2022-11-20T07:50:31;18.27;;;5.60;;
11522;SDS011;40093;43.224;27.910;2022-11-20T07:53:01;16.63;;;5.80;;
11522;SDS011;40093;43.224;27.910;2022-11-20T07:55:29;18.13;;;5.90;;
11522;SDS011;40093;43.224;27.910;2022-11-20T07:57:56;20.73;;;6.00;;
11522;SDS011;40093;43.224;27.910;2022-11-20T08:00:23;13.40;;;4.93;;
11522;SDS011;40093;43.224;27.910;2022-11-20T08:02:51;15.37;;;5.40;;
11522;SDS011;40093;43.224;27.910;2022-11-20T08:05:20;14.80;;;4.77;;
11522;SDS011;40093;43.224;27.910;2022-11-20T08:07:47;19.40;;;4.70;;
11522;SDS011;40093;43.224;27.910;2022-11-20T08:10:14;14.97;;;5.00;;
11522;SDS011;40093;43.224;27.910;2022-11-20T08:12:45;17.80;;;6.40;;
11522;SDS011;40093;43.224;27.910;2022-11-20T08:15:30;16.70;;;5.70;;
11522;SDS011;40093;43.224;27.910;2022-11-20T08:18:01;14.33;;;5.47;;
11522;SDS011;40093;43.224;27.910;2022-11-20T08:20:31;17.53;;;6.63;;
11522;SDS011;40093;43.224;27.910;2022-11-20T08:22:58;14.33;;;6.20;;
11522;SDS011;40093;43.224;27.910;2022-11-20T08:25:26;11.67;;;5.57;;
11522;SDS011;40093;43.224;27.910;2022-11-20T08:27:56;14.57;;;5.70;;
11522;SDS011;40093;43.224;27.910;2022-11-20T08:30:24;13.73;;;5.60;;
11522;SDS011;40093;43.224;27.910;2022-11-20T08:32:51;19.23;;;6.60;;
11522;SDS011;40093;43.224;27.910;2022-11-20T08:35:18;17.80;;;5.80;;
11522;SDS011;40093;43.224;27.910;2022-11-20T08:37:47;18.83;;;7.97;;
11522;SDS011;40093;43.224;27.910;2022-11-20T08:40:14;21.70;;;7.23;;
11522;SDS011;40093;43.224;27.910;2022-11-20T08:42:48;16.37;;;6.87;;
11522;SDS011;40093;43.224;27.910;2022-11-20T08:45:16;25.63;;;6.37;;
11522;SDS011;40093;43.224;27.910;2022-11-20T08:47:43;15.57;;;6.30;;
11522;SDS011;40093;43.224;27.910;2022-11-20T08:50:11;21.33;;;6.83;;
11522;SDS011;40093;43.224;27.910;2022-11-20T08:52:39;17.63;;;7.00;;
11522;SDS011;40093;43.224;27.910;2022-11-20T08:55:09;18.27;;;6.40;;
11522;SDS011;40093;43.224;27.910;2022-11-20T08:57:36;17.63;;;6.50;;
11522;SDS011;40093;43.224;27.910;2022-11-20T09:00:05;17.57;;;7.03;;
11522;SDS011;40093;43.224;27.910;2022-11-20T09:02:33;18.03;;;6.23;;
11522;SDS011;40093;43.224;27.910;2022-11-20T09:05:00;15.17;;;6.23;;
11522;SDS011;40093;43.224;27.910;2022-11-20T09:07:28;20.57;;;7.43;;
11522;SDS011;40093;43.224;27.910;2022-11-20T09:09:56;10.27;;;6.10;;
11522;SDS011;40093;43.224;27.910;2022-11-20T09:12:24;14.90;;;5.87;;
11522;SDS011;40093;43.224;27.910;2022-11-20T09:14:51;18.30;;;6.17;;
11522;SDS011;40093;43.224;27.910;2022-11-20T09:17:18;16.20;;;6.33;;
11522;SDS011;40093;43.224;27.910;2022-11-20T09:19:46;16.17;;;5.67;;
11522;SDS011;40093;43.224;27.910;2022-11-20T09:22:13;14.67;;;5.33;;
11522;SDS011;40093;43.224;27.910;2022-11-20T09:24:40;19.77;;;5.90;;
11522;SDS011;40093;43.224;27.910;2022-11-20T09:27:07;16.83;;;6.43;;
11522;SDS011;40093;43.224;27.910;2022-11-20T09:29:36;18.43;;;7.77;;
11522;SDS011;40093;43.224;27.910;2022-11-20T09:32:03;16.87;;;6.07;;
11522;SDS011;40093;43.224;27.910;2022-11-20T09:34:31;18.53;;;7.47;;
11522;SDS011;40093;43.224;27.910;2022-11-20T09:36:58;19.43;;;6.13;;
11522;SDS011;40093;43.224;27.910;2022-11-20T09:39:25;17.70;;;6.60;;
11522;SDS011;40093;43.224;27.910;2022-11-20T09:41:56;14.77;;;5.97;;
11522;SDS011;40093;43.224;27.910;2022-11-20T09:44:48;13.37;;;6.07;;
11522;SDS011;40093;43.224;27.910;2022-11-20T09:47:31;13.73;;;5.23;;
11522;SDS011;40093;43.224;27.910;2022-11-20T09:50:18;14.43;;;5.00;;
11522;SDS011;40093;43.224;27.910;2022-11-20T09:52:55;18.70;;;5.20;;
11522;SDS011;40093;43.224;27.910;2022-11-20T09:55:31;18.13;;;5.23;;
11522;SDS011;40093;43.224;27.910;2022-11-20T09:57:58;17.07;;;5.73;;
11522;SDS011;40093;43.224;27.910;2022-11-20T10:00:27;16.20;;;5.87;;
11522;SDS011;40093;43.224;27.910;2022-11-20T10:02:55;16.67;;;7.37;;
11522;SDS011;40093;43.224;27.910;2022-11-20T10:05:28;21.27;;;7.30;;
11522;SDS011;40093;43.224;27.910;2022-11-20T10:08:02;18.07;;;6.67;;
11522;SDS011;40093;43.224;27.910;2022-11-20T10:10:40;28.73;;;10.10;;
11522;SDS011;40093;43.224;27.910;2022-11-20T10:13:23;20.33;;;7.40;;
11522;SDS011;40093;43.224;27.910;2022-11-20T10:16:07;27.23;;;11.07;;
11522;SDS011;40093;43.224;27.910;2022-11-20T10:18:44;27.43;;;11.73;;
11522;SDS011;40093;43.224;27.910;2022-11-20T10:21:25;19.70;;;6.77;;
11522;SDS011;40093;43.224;27.910;2022-11-20T10:26:52;23.07;;;8.97;;
11522;SDS011;40093;43.224;27.910;2022-11-20T10:29:27;21.80;;;9.70;;
11522;SDS011;40093;43.224;27.910;2022-11-20T10:32:01;20.13;;;5.40;;
11522;SDS011;40093;43.224;27.910;2022-11-20T10:34:31;15.00;;;4.73;;
11522;SDS011;40093;43.224;27.910;2022-11-20T10:37:08;24.03;;;8.30;;
11522;SDS011;40093;43.224;27.910;2022-11-20T10:39:40;20.70;;;6.10;;
11522;SDS011;40093;43.224;27.910;2022-11-20T10:42:14;22.40;;;8.53;;
11522;SDS011;40093;43.224;27.910;2022-11-20T10:44:49;15.03;;;6.10;;
11522;SDS011;40093;43.224;27.910;2022-11-20T10:47:30;21.87;;;6.83;;
11522;SDS011;40093;43.224;27.910;2022-11-20T10:49:58;20.57;;;7.27;;
11522;SDS011;40093;43.224;27.910;2022-11-20T10:52:31;17.63;;;6.33;;
11522;SDS011;40093;43.224;27.910;2022-11-20T10:55:05;16.83;;;5.27;;
11522;SDS011;40093;43.224;27.910;2022-11-20T10:57:44;22.07;;;7.00;;
11522;SDS011;40093;43.224;27.910;2022-11-20T11:00:18;20.20;;;5.70;;
11522;SDS011;40093;43.224;27.910;2022-11-20T11:02:47;17.73;;;5.87;;
11522;SDS011;40093;43.224;27.910;2022-11-20T11:05:18;20.90;;;6.30;;
11522;SDS011;40093;43.224;27.910;2022-11-20T11:07:53;20.87;;;5.90;;
11522;SDS011;40093;43.224;27.910;2022-11-20T11:10:23;20.93;;;6.93;;
11522;SDS011;40093;43.224;27.910;2022-11-20T11:12:52;14.67;;;5.47;;
11522;SDS011;40093;43.224;27.910;2022-11-20T11:15:26;18.70;;;5.20;;
11522;SDS011;40093;43.224;27.910;2022-11-20T11:17:56;18.73;;;6.60;;
11522;SDS011;40093;43.224;27.910;2022-11-20T11:20:24;18.77;;;5.60;;
11522;SDS011;40093;43.224;27.910;2022-11-20T11:22:53;22.80;;;6.60;;
11522;SDS011;40093;43.224;27.910;2022-11-20T11:25:23;20.40;;;6.20;;
11522;SDS011;40093;43.224;27.910;2022-11-20T11:27:56;16.20;;;5.87;;
11522;SDS011;40093;43.224;27.910;2022-11-20T11:30:25;20.43;;;5.00;;
11522;SDS011;40093;43.224;27.910;2022-11-20T11:35:39;17.07;;;5.30;;
11522;SDS011;40093;43.224;27.910;2022-11-20T11:38:12;18.90;;;6.00;;
11522;SDS011;40093;43.224;27.910;2022-11-20T11:40:43;13.10;;;5.37;;
11522;SDS011;40093;43.224;27.910;2022-11-20T11:43:17;15.53;;;5.00;;
11522;SDS011;40093;43.224;27.910;2022-11-20T11:46:19;15.97;;;5.73;;
11522;SDS011;40093;43.224;27.910;2022-11-20T11:48:59;17.43;;;5.97;;
11522;SDS011;40093;43.224;27.910;2022-11-20T11:51:32;17.60;;;5.53;;
11522;SDS011;40093;43.224;27.910;2022-11-20T11:54:05;17.27;;;5.70;;
11522;SDS011;40093;43.224;27.910;2022-11-20T11:56:40;20.10;;;6.17;;
11522;SDS011;40093;43.224;27.910;2022-11-20T11:59:09;21.30;;;6.87;;
11522;SDS011;40093;43.224;27.910;2022-11-20T12:01:43;26.50;;;12.33;;
11522;SDS011;40093;43.224;27.910;2022-11-20T12:04:17;23.37;;;10.03;;
11522;SDS011;40093;43.224;27.910;2022-11-20T12:06:51;22.20;;;9.57;;
11522;SDS011;40093;43.224;27.910;2022-11-20T12:09:26;23.80;;;8.63;;
11522;SDS011;40093;43.224;27.910;2022-11-20T12:12:02;27.27;;;6.50;;
11522;SDS011;40093;43.224;27.910;2022-11-20T12:14:35;17.03;;;5.70;;
11522;SDS011;40093;43.224;27.910;2022-11-20T12:17:07;22.73;;;5.93;;
11522;SDS011;40093;43.224;27.910;2022-11-20T12:19:38;18.23;;;5.83;;
11522;SDS011;40093;43.224;27.910;2022-11-20T12:22:07;19.60;;;5.43;;
11522;SDS011;40093;43.224;27.910;2022-11-20T12:24:53;21.47;;;6.50;;
11522;SDS011;40093;43.224;27.910;2022-11-20T12:27:35;23.83;;;6.33;;
11522;SDS011;40093;43.224;27.910;2022-11-20T12:30:17;16.73;;;5.50;;
11522;SDS011;40093;43.224;27.910;2022-11-20T12:32:49;19.43;;;5.83;;
11522;SDS011;40093;43.224;27.910;2022-11-20T12:41:43;28.37;;;6.37;;
11522;SDS011;40093;43.224;27.910;2022-11-20T12:47:43;20.93;;;6.33;;
11522;SDS011;40093;43.224;27.910;2022-11-20T12:50:22;25.30;;;6.60;;
11522;SDS011;40093;43.224;27.910;2022-11-20T12:53:04;25.73;;;6.70;;
11522;SDS011;40093;43.224;27.910;2022-11-20T12:55:41;25.17;;;7.03;;
11522;SDS011;40093;43.224;27.910;2022-11-20T12:58:17;29.03;;;7.73;;
11522;SDS011;40093;43.224;27.910;2022-11-20T13:00:55;28.30;;;6.63;;
11522;SDS011;40093;43.224;27.910;2022-11-20T13:03:33;29.77;;;8.07;;
11522;SDS011;40093;43.224;27.910;2022-11-20T13:06:10;30.07;;;11.03;;
11522;SDS011;40093;43.224;27.910;2022-11-20T13:08:43;30.43;;;9.47;;
11522;SDS011;40093;43.224;27.910;2022-11-20T13:11:17;26.53;;;8.50;;
11522;SDS011;40093;43.224;27.910;2022-11-20T13:14:02;33.93;;;8.40;;
11522;SDS011;40093;43.224;27.910;2022-11-20T13:16:38;27.57;;;12.73;;
11522;SDS011;40093;43.224;27.910;2022-11-20T13:19:16;31.73;;;10.00;;
11522;SDS011;40093;43.224;27.910;2022-11-20T13:21:45;30.40;;;9.90;;
11522;SDS011;40093;43.224;27.910;2022-11-20T13:24:22;25.47;;;7.37;;
11522;SDS011;40093;43.224;27.910;2022-11-20T13:27:05;24.73;;;6.67;;
11522;SDS011;40093;43.224;27.910;2022-11-20T13:30:00;27.90;;;6.83;;
11522;SDS011;40093;43.224;27.910;2022-11-20T13:32:49;27.30;;;7.30;;
11522;SDS011;40093;43.224;27.910;2022-11-20T13:35:24;23.70;;;6.40;;
11522;SDS011;40093;43.224;27.910;2022-11-20T13:37:59;25.30;;;6.80;;
11522;SDS011;40093;43.224;27.910;2022-11-20T13:40:30;25.47;;;6.67;;
11522;SDS011;40093;43.224;27.910;2022-11-20T13:43:02;28.50;;;7.23;;
11522;SDS011;40093;43.224;27.910;2022-11-20T13:45:36;25.03;;;7.03;;
11522;SDS011;40093;43.224;27.910;2022-11-20T13:48:04;22.40;;;7.30;;
11522;SDS011;40093;43.224;27.910;2022-11-20T13:50:46;27.50;;;7.03;;
11522;SDS011;40093;43.224;27.910;2022-11-20T13:53:25;25.37;;;6.40;;
11522;SDS011;40093;43.224;27.910;2022-11-20T13:56:05;25.17;;;6.53;;
11522;SDS011;40093;43.224;27.910;2022-11-20T13:58:40;24.03;;;7.73;;
11522;SDS011;40093;43.224;27.910;2022-11-20T14:01:16;23.83;;;6.70;;
11522;SDS011;40093;43.224;27.910;2022-11-20T14:03:47;27.67;;;7.27;;
11522;SDS011;40093;43.224;27.910;2022-11-20T14:06:16;25.97;;;7.67;;
11522;SDS011;40093;43.224;27.910;2022-11-20T14:08:51;28.43;;;7.30;;
11522;SDS011;40093;43.224;27.910;2022-11-20T14:11:21;27.27;;;7.10;;
11522;SDS011;40093;43.224;27.910;2022-11-20T14:13:59;26.70;;;7.10;;
11522;SDS011;40093;43.224;27.910;2022-11-20T14:16:28;26.77;;;6.73;;
11522;SDS011;40093;43.224;27.910;2022-11-20T14:18:57;27.30;;;7.20;;
11522;SDS011;40093;43.224;27.910;2022-11-20T14:21:51;27.97;;;7.83;;
11522;SDS011;40093;43.224;27.910;2022-11-20T14:24:20;27.67;;;6.47;;
11522;SDS011;40093;43.224;27.910;2022-11-20T14:26:50;28.33;;;7.43;;
11522;SDS011;40093;43.224;27.910;2022-11-20T14:29:18;30.00;;;8.53;;
11522;SDS011;40093;43.224;27.910;2022-11-20T14:31:47;35.13;;;9.70;;
11522;SDS011;40093;43.224;27.910;2022-11-20T14:34:18;31.20;;;8.50;;
11522;SDS011;40093;43.224;27.910;2022-11-20T14:36:55;30.27;;;8.70;;
11522;SDS011;40093;43.224;27.910;2022-11-20T14:39:25;27.77;;;9.23;;
11522;SDS011;40093;43.224;27.910;2022-11-20T14:41:58;28.60;;;9.63;;
11522;SDS011;40093;43.224;27.910;2022-11-20T14:44:26;33.30;;;9.90;;
11522;SDS011;40093;43.224;27.910;2022-11-20T14:46:56;28.23;;;9.80;;
11522;SDS011;40093;43.224;27.910;2022-11-20T14:49:24;28.63;;;10.10;;
11522;SDS011;40093;43.224;27.910;2022-11-20T14:51:58;33.80;;;10.23;;
11522;SDS011;40093;43.224;27.910;2022-11-20T14:54:26;32.27;;;10.40;;
11522;SDS011;40093;43.224;27.910;2022-11-20T14:56:54;32.60;;;10.53;;
11522;SDS011;40093;43.224;27.910;2022-11-20T14:59:24;33.00;;;10.13;;
11522;SDS011;40093;43.224;27.910;2022-11-20T15:01:55;35.40;;;11.07;;
11522;SDS011;40093;43.224;27.910;2022-11-20T15:04:24;32.53;;;11.10;;
11522;SDS011;40093;43.224;27.910;2022-11-20T15:06:52;33.53;;;10.50;;
11522;SDS011;40093;43.224;27.910;2022-11-20T15:09:20;30.20;;;7.53;;
11522;SDS011;40093;43.224;27.910;2022-11-20T15:11:52;28.27;;;8.07;;
11522;SDS011;40093;43.224;27.910;2022-11-20T15:14:22;38.53;;;8.00;;